Time;durP1;ratioP1;P1;durP2;ratioP2;P2;SDS_P1;SDS_P2;PMS_P1;PMS_P2;Temp;Humidity;BMP_temperature;BMP_pressure;BME280_temperature;BME280_humidity;BME280_pressure;Samples;Min_cycle;Max_cycle;Signal;HPM_P1;HPM_P2
2022/09/19 00:01:51;;;;;;;12.10;2.75;;;;;;;13.65;60.53;101645.66;5077621;28;20055;-66
2022/09/19 00:04:21;;;;;;;7.32;2.35;;;;;;;13.63;60.40;101634.97;5088706;28;20083;-66
2022/09/19 00:06:50;;;;;;;12.63;1.85;;;;;;;13.60;60.25;101637.88;5060069;28;20044;-66
2022/09/19 00:09:20;;;;;;;5.80;1.90;;;;;;;13.58;60.62;101638.97;5090307;28;20044;-66
2022/09/19 00:11:48;;;;;;;8.85;2.33;;;;;;;13.56;60.71;101638.19;5085790;28;20044;-66
2022/09/19 00:14:20;;;;;;;12.38;2.22;;;;;;;13.54;60.36;101635.59;5088949;28;20119;-66
2022/09/19 00:16:48;;;;;;;10.43;2.47;;;;;;;13.52;60.46;101631.28;5090683;28;20048;-66
2022/09/19 00:19:19;;;;;;;11.57;2.95;;;;;;;13.50;60.16;101633.25;5081372;28;20036;-66
2022/09/19 00:21:47;;;;;;;4.95;2.22;;;;;;;13.52;60.24;101631.28;5086612;28;20077;-66
2022/09/19 00:27:09;;;;;;;10.45;2.33;;;;;;;13.42;60.36;101630.22;5089705;28;20051;-66
2022/09/19 00:29:37;;;;;;;6.20;1.77;;;;;;;13.39;60.18;101636.69;5063902;28;20045;-66
2022/09/19 00:32:11;;;;;;;7.95;2.13;;;;;;;13.35;60.29;101635.16;5073618;28;20049;-66
2022/09/19 00:34:44;;;;;;;9.30;2.30;;;;;;;13.32;60.33;101633.53;5080020;28;20414;-66
2022/09/19 00:37:11;;;;;;;9.65;1.90;;;;;;;13.34;60.44;101638.81;5093163;28;20060;-66
2022/09/19 00:39:38;;;;;;;7.60;1.92;;;;;;;13.31;60.34;101637.19;5079229;28;20098;-66
2022/09/19 00:42:12;;;;;;;12.65;2.40;;;;;;;13.33;60.28;101634.41;5089630;28;20559;-66
2022/09/19 00:44:53;;;;;;;10.05;2.75;;;;;;;13.32;60.28;101633.53;5093049;28;20501;-66
2022/09/19 00:47:24;;;;;;;13.48;2.30;;;;;;;13.33;60.44;101646.06;5090032;28;20041;-67
2022/09/19 00:49:54;;;;;;;7.32;2.03;;;;;;;13.29;60.18;101633.75;5085395;28;20101;-66
2022/09/19 00:52:46;;;;;;;13.20;2.75;;;;;;;13.28;60.38;101645.50;5094037;28;20040;-67
2022/09/19 00:55:13;;;;;;;5.03;2.10;;;;;;;13.28;60.62;101644.66;5093088;28;20056;-67
2022/09/19 00:57:52;;;;;;;10.65;2.22;;;;;;;13.29;60.02;101641.84;5075360;28;20493;-67
2022/09/19 01:00:19;;;;;;;9.70;2.40;;;;;;;13.31;60.13;101644.44;5093019;28;20044;-67
2022/09/19 01:02:48;;;;;;;8.43;2.47;;;;;;;13.31;60.15;101645.28;5075503;28;20042;-66
2022/09/19 01:05:16;;;;;;;6.18;2.42;;;;;;;13.31;60.22;101656.09;5055130;28;20072;-66
2022/09/19 01:07:56;;;;;;;7.47;1.92;;;;;;;13.31;60.16;101647.13;5072030;28;20147;-66
2022/09/19 01:10:34;;;;;;;10.05;2.72;;;;;;;13.30;60.07;101645.41;5080751;28;20052;-66
2022/09/19 01:13:13;;;;;;;6.90;2.30;;;;;;;13.28;60.37;101664.38;5092356;28;20093;-66
2022/09/19 01:16:02;;;;;;;6.50;2.28;;;;;;;13.20;60.06;101658.66;5093347;28;20051;-66
2022/09/19 01:18:46;;;;;;;10.27;1.98;;;;;;;13.17;60.19;101658.00;5063233;28;20049;-66
2022/09/19 01:21:40;;;;;;;6.70;2.08;;;;;;;13.15;60.19;101655.38;5066020;28;20407;-67
2022/09/19 01:24:37;;;;;;;9.20;2.35;;;;;;;13.14;60.05;101666.28;5067061;28;20040;-66
2022/09/19 01:27:09;;;;;;;7.47;1.87;;;;;;;13.11;59.97;101669.19;5052583;28;20037;-66
2022/09/19 01:29:45;;;;;;;5.63;1.95;;;;;;;13.07;60.09;101676.63;5051579;28;20418;-66
2022/09/19 01:32:18;;;;;;;6.90;3.25;;;;;;;13.02;60.02;101676.06;5052473;28;20052;-66
2022/09/19 01:34:51;;;;;;;4.72;1.48;;;;;;;12.99;60.35;101673.59;5065266;28;20111;-66
2022/09/19 01:37:27;;;;;;;5.50;1.67;;;;;;;12.96;60.11;101673.81;5062369;28;20075;-66
2022/09/19 01:39:58;;;;;;;9.50;2.25;;;;;;;12.96;60.08;101677.34;5070501;28;20040;-66
2022/09/19 01:42:25;;;;;;;5.97;1.70;;;;;;;12.97;60.18;101672.84;5062436;28;20049;-66
2022/09/19 01:44:55;;;;;;;10.10;2.10;;;;;;;13.00;60.05;101683.41;5070831;28;20139;-66
2022/09/19 01:47:52;;;;;;;6.88;2.35;;;;;;;12.97;59.94;101673.69;5070182;28;20124;-66
2022/09/19 01:50:40;;;;;;;8.40;2.22;;;;;;;12.98;60.19;101683.50;5071156;28;20051;-66
2022/09/19 01:53:25;;;;;;;11.35;2.33;;;;;;;12.96;60.25;101685.44;5071628;28;20103;-66
2022/09/19 01:56:51;;;;;;;7.35;2.17;;;;;;;12.93;60.11;101688.34;5070015;28;20060;-66
2022/09/19 01:59:35;;;;;;;9.15;1.85;;;;;;;12.90;60.16;101685.88;5070400;28;20491;-66
2022/09/19 02:02:34;;;;;;;8.05;2.05;;;;;;;12.88;60.22;101690.50;5062925;28;20052;-66
2022/09/19 02:05:28;;;;;;;5.20;1.73;;;;;;;12.84;60.14;101693.50;5059443;28;20059;-66
2022/09/19 02:08:16;;;;;;;6.35;1.92;;;;;;;12.81;60.28;101685.63;5070193;28;20384;-66
2022/09/19 02:10:51;;;;;;;6.72;2.13;;;;;;;12.80;60.23;101687.44;5070389;28;20041;-66
2022/09/19 02:13:22;;;;;;;13.50;2.10;;;;;;;12.80;59.93;101689.28;5053557;28;20095;-66
2022/09/19 02:16:17;;;;;;;6.90;2.00;;;;;;;12.79;59.95;101684.84;5055059;28;20048;-66
2022/09/19 02:19:02;;;;;;;;;;;;;;;12.78;59.89;101685.81;5071002;28;20072;-67
2022/09/19 02:21:55;;;;;;;6.80;2.55;;;;;;;12.79;60.10;101690.25;5067055;28;20281;-67
2022/09/19 02:24:28;;;;;;;8.27;2.00;;;;;;;12.80;60.11;101689.28;5043321;28;20454;-66
2022/09/19 02:27:07;;;;;;;11.65;2.05;;;;;;;12.83;60.42;101691.78;5050213;28;20033;-66
2022/09/19 02:29:40;;;;;;;8.57;2.25;;;;;;;12.85;60.56;101693.41;5050388;28;20049;-66
2022/09/19 02:32:09;;;;;;;10.32;2.47;;;;;;;12.88;60.60;101698.59;5067001;28;20048;-67
2022/09/19 02:34:37;;;;;;;5.32;2.20;;;;;;;12.92;60.43;101699.25;5054090;28;20442;-66
2022/09/19 02:37:07;;;;;;;7.07;2.35;;;;;;;12.94;60.46;101692.78;5054197;28;20098;-66
2022/09/19 02:39:43;;;;;;;6.38;2.20;;;;;;;12.98;60.45;101699.69;5050296;28;20476;-66
2022/09/19 02:42:38;;;;;;;5.97;1.90;;;;;;;12.99;60.40;101698.72;5049970;28;20045;-66
2022/09/19 02:45:17;;;;;;;10.70;3.00;;;;;;;13.01;60.68;101696.78;5052048;28;20048;-66
2022/09/19 02:48:03;;;;;;;11.60;3.95;;;;;;;13.01;60.32;101699.47;5069574;28;20040;-67
2022/09/19 02:50:39;;;;;;;9.13;2.10;;;;;;;13.01;60.49;101694.09;5069456;28;20043;-67
2022/09/19 02:53:12;;;;;;;10.30;2.45;;;;;;;13.01;60.41;101691.41;5071223;28;20029;-66
2022/09/19 02:55:46;;;;;;;9.95;2.53;;;;;;;13.02;60.75;101701.22;5064955;28;20045;-67
2022/09/19 02:58:15;;;;;;;8.95;2.40;;;;;;;13.03;60.70;101699.38;5050152;28;20529;-67
2022/09/19 03:00:48;;;;;;;27.90;3.03;;;;;;;13.02;60.57;101693.13;5061645;28;20072;-67
2022/09/19 03:06:13;;;;;;;11.02;2.45;;;;;;;13.08;60.59;101701.75;5054711;28;20045;-66
2022/09/19 03:08:44;;;;;;;9.50;2.22;;;;;;;13.09;60.48;101698.97;5049931;28;20051;-66
2022/09/19 03:11:15;;;;;;;10.57;2.38;;;;;;;13.11;60.91;101704.25;5050082;28;20067;-66
2022/09/19 03:13:47;;;;;;;10.52;2.22;;;;;;;13.12;60.94;101706.84;5049826;28;20575;-67
2022/09/19 03:16:21;;;;;;;8.40;2.25;;;;;;;13.13;60.62;101708.56;5050100;28;20502;-67
2022/09/19 03:18:49;;;;;;;16.30;3.08;;;;;;;13.14;60.73;101707.59;5049842;28;20037;-67
2022/09/19 03:21:21;;;;;;;11.05;2.10;;;;;;;13.18;61.08;101708.28;5067901;28;20509;-67
2022/09/19 03:23:52;;;;;;;10.82;2.42;;;;;;;13.21;61.16;101713.47;5069761;28;20494;-67
2022/09/19 03:26:30;;;;;;;8.55;2.85;;;;;;;13.25;61.26;101718.56;5068114;28;20083;-66
2022/09/19 03:28:59;;;;;;;9.18;2.38;;;;;;;13.26;60.83;101709.50;5066269;28;20090;-66
2022/09/19 03:31:32;;;;;;;10.85;1.88;;;;;;;13.28;60.92;101710.25;5049729;28;20037;-65
2022/09/19 03:34:06;;;;;;;11.57;2.97;;;;;;;13.31;61.33;101717.28;5041363;28;20484;-66
2022/09/19 03:36:33;;;;;;;10.68;2.70;;;;;;;13.33;61.06;101710.78;5070153;28;20105;-65
2022/09/19 03:39:02;;;;;;;10.98;2.22;;;;;;;13.34;61.21;101714.38;5069540;28;20193;-65
2022/09/19 03:41:34;;;;;;;14.80;2.42;;;;;;;13.38;61.20;101720.41;5069612;28;20660;-65
2022/09/19 03:44:05;;;;;;;12.63;2.22;;;;;;;13.39;60.87;101723.03;5060760;28;20073;-66
2022/09/19 03:46:33;;;;;;;9.10;2.38;;;;;;;13.43;61.11;101723.69;5049370;28;20123;-65
2022/09/19 03:49:02;;;;;;;13.07;2.28;;;;;;;13.48;61.25;101732.31;5067307;28;20036;-66
2022/09/19 03:51:31;;;;;;;10.55;2.28;;;;;;;13.50;60.93;101731.25;5068748;28;20114;-66
2022/09/19 03:54:04;;;;;;;13.38;2.17;;;;;;;13.54;60.94;101723.81;5069516;28;20055;-66
2022/09/19 03:56:37;;;;;;;7.95;1.95;;;;;;;13.57;61.20;101720.88;5069347;28;20045;-66
2022/09/19 03:59:06;;;;;;;18.60;3.33;;;;;;;13.59;60.83;101721.66;5054292;28;20273;-66
2022/09/19 04:01:33;;;;;;;10.93;1.88;;;;;;;13.59;60.95;101718.94;5049104;28;20045;-66
2022/09/19 04:04:04;;;;;;;11.15;2.25;;;;;;;13.59;60.96;101719.81;5052115;28;20048;-66
2022/09/19 04:06:34;;;;;;;9.40;2.03;;;;;;;13.59;61.01;101718.94;5053176;28;20065;-66
2022/09/19 04:09:03;;;;;;;12.82;2.03;;;;;;;13.59;61.19;101725.22;5055489;28;20037;-66
2022/09/19 04:11:30;;;;;;;9.80;2.20;;;;;;;13.57;60.85;101724.47;5072877;28;20135;-66
2022/09/19 04:13:57;;;;;;;8.90;1.98;;;;;;;13.57;61.14;101727.16;5055537;28;20522;-66
2022/09/19 04:16:24;;;;;;;6.93;2.10;;;;;;;13.59;60.83;101727.03;5052809;28;20037;-65
2022/09/19 04:18:52;;;;;;;6.57;1.85;;;;;;;13.59;60.83;101727.03;5066477;28;20529;-66
2022/09/19 04:21:42;;;;;;;7.30;2.20;;;;;;;13.59;60.85;101730.63;5069753;28;20060;-65
2022/09/19 04:24:31;;;;;;;15.02;2.20;;;;;;;13.58;60.60;101730.72;5061166;28;20041;-66
2022/09/19 04:27:19;;;;;;;4.97;2.00;;;;;;;13.54;60.51;101742.69;5061668;28;20502;-67
2022/09/19 04:29:48;;;;;;;10.52;2.55;;;;;;;13.52;60.63;101737.41;5072440;28;20040;-66
2022/09/19 04:32:15;;;;;;;7.03;2.03;;;;;;;13.49;60.80;101744.84;5071584;28;20059;-67
2022/09/19 04:34:44;;;;;;;3.97;2.20;;;;;;;13.47;60.47;101741.41;5067378;28;20041;-66
2022/09/19 04:37:15;;;;;;;10.60;3.25;;;;;;;13.45;60.68;101738.81;5056477;28;20037;-66
2022/09/19 04:39:48;;;;;;;10.60;2.20;;;;;;;13.44;60.68;101745.16;5052511;28;20049;-66
2022/09/19 04:42:18;;;;;;;12.45;2.72;;;;;;;13.44;60.74;101747.88;5059309;28;20491;-66
2022/09/19 04:44:46;;;;;;;5.82;1.85;;;;;;;13.42;60.50;101757.03;5072826;28;20044;-66
2022/09/19 04:47:39;;;;;;;12.20;2.25;;;;;;;13.41;60.58;101748.06;5070021;28;20067;-66
2022/09/19 04:50:08;;;;;;;11.18;2.30;;;;;;;13.41;60.49;101747.22;5058123;28;20522;-66
2022/09/19 04:52:38;;;;;;;7.38;1.90;;;;;;;13.40;60.59;101758.97;5053406;28;20048;-66
2022/09/19 04:55:30;;;;;;;7.30;2.33;;;;;;;13.38;60.70;101750.09;5053784;28;20439;-66
2022/09/19 04:58:04;;;;;;;9.10;2.10;;;;;;;13.42;60.84;101767.81;5070659;28;20047;-66
2022/09/19 05:00:38;;;;;;;9.77;2.15;;;;;;;13.40;60.92;101762.53;5072542;28;20041;-66
2022/09/19 05:03:15;;;;;;;10.32;2.00;;;;;;;13.41;60.85;101758.00;5057123;28;20599;-66
2022/09/19 05:05:50;;;;;;;10.05;2.00;;;;;;;13.40;60.66;101764.38;5067201;28;20045;-66
2022/09/19 05:08:27;;;;;;;10.57;1.92;;;;;;;13.41;61.15;101764.25;5071967;28;20090;-66
2022/09/19 05:10:58;;;;;;;11.07;2.17;;;;;;;13.44;60.81;101764.06;5070868;28;20401;-66
2022/09/19 05:13:45;;;;;;;30.30;3.05;;;;;;;13.45;60.89;101767.63;5071374;28;20049;-66
2022/09/19 05:16:18;;;;;;;14.38;2.10;;;;;;;13.48;60.92;101764.72;5073040;28;20053;-66
2022/09/19 05:18:50;;;;;;;6.68;2.42;;;;;;;13.50;61.00;101770.88;5055721;28;20048;-66
2022/09/19 05:21:17;;;;;;;8.82;2.10;;;;;;;13.53;61.42;101773.34;5071170;28;20037;-66
2022/09/19 05:23:45;;;;;;;8.73;2.25;;;;;;;13.54;61.32;101777.78;5069835;28;20508;-66
2022/09/19 05:26:16;;;;;;;10.10;2.33;;;;;;;13.55;61.36;101780.38;5051304;28;20049;-67
2022/09/19 05:28:47;;;;;;;8.65;2.08;;;;;;;13.57;61.11;101782.97;5051652;28;20095;-66
2022/09/19 05:31:18;;;;;;;13.27;2.65;;;;;;;13.59;61.32;101781.91;5051226;28;20047;-66
2022/09/19 05:34:00;;;;;;;11.95;2.60;;;;;;;13.65;61.35;101789.56;5056820;28;20136;-66
2022/09/19 05:36:28;;;;;;;5.93;1.90;;;;;;;13.67;61.36;101792.16;5050866;28;20496;-66
2022/09/19 05:39:12;;;;;;;6.50;2.03;;;;;;;13.68;61.13;101794.75;5070808;28;20041;-66
2022/09/19 05:41:58;;;;;;;5.28;1.73;;;;;;;13.70;61.19;101797.34;5063690;28;20403;-66
2022/09/19 05:44:29;;;;;;;9.68;2.33;;;;;;;13.72;61.12;101805.34;5062161;28;20587;-66
2022/09/19 05:46:58;;;;;;;11.85;1.90;;;;;;;13.72;60.96;101798.09;5070782;28;20037;-66
2022/09/19 05:49:26;;;;;;;12.88;2.45;;;;;;;13.73;61.26;101799.84;5064314;28;20065;-67
2022/09/19 05:51:56;;;;;;;9.07;2.13;;;;;;;13.74;61.16;101806.97;5069076;28;20559;-66
2022/09/19 05:54:25;;;;;;;11.75;2.38;;;;;;;13.75;60.85;101805.13;5071031;28;20498;-66
2022/09/19 05:57:10;;;;;;;8.27;1.90;;;;;;;13.76;61.14;101810.41;5072096;28;20149;-66
2022/09/19 05:59:38;;;;;;;6.75;1.95;;;;;;;13.78;61.29;101804.91;5069143;28;20048;-66
2022/09/19 06:02:07;;;;;;;9.25;1.98;;;;;;;13.79;61.12;101810.22;5070095;28;20560;-66
2022/09/19 06:04:51;;;;;;;5.67;2.23;;;;;;;13.82;61.18;101811.84;5068754;28;20045;-67
2022/09/19 06:07:20;;;;;;;8.10;2.15;;;;;;;13.82;61.31;101811.84;5051093;28;20292;-67
2022/09/19 06:09:49;;;;;;;9.15;2.70;;;;;;;13.85;61.13;101817.03;5051778;28;20464;-66
2022/09/19 06:12:16;;;;;;;10.48;2.85;;;;;;;13.86;61.31;101814.22;5050828;28;20041;-66
2022/09/19 06:14:43;;;;;;;10.90;2.22;;;;;;;13.89;61.19;101822.09;5050936;28;20067;-66
2022/09/19 06:17:13;;;;;;;11.10;2.65;;;;;;;13.93;61.11;101823.63;5053323;28;20041;-66
2022/09/19 06:19:49;;;;;;;7.45;2.22;;;;;;;13.96;61.24;101827.94;5073910;28;20090;-67
2022/09/19 06:22:35;;;;;;;10.45;2.78;;;;;;;14.01;61.26;101833.88;5053279;28;20117;-66
2022/09/19 06:25:03;;;;;;;11.32;2.30;;;;;;;14.05;61.42;101837.22;5053967;28;20402;-67
2022/09/19 06:27:30;;;;;;;10.85;2.47;;;;;;;14.09;61.37;101836.91;5053211;28;20095;-65
2022/09/19 06:29:58;;;;;;;6.38;2.40;;;;;;;14.13;61.58;101838.47;5053983;28;20047;-67
2022/09/19 06:32:32;;;;;;;9.73;2.07;;;;;;;14.16;61.29;101834.69;5057063;28;20045;-66
2022/09/19 06:35:31;;;;;;;11.35;2.72;;;;;;;14.19;61.18;101834.47;5054873;28;20474;-66
2022/09/19 06:38:00;;;;;;;9.32;2.40;;;;;;;14.21;61.18;101835.22;5070279;28;20502;-66
2022/09/19 06:40:28;;;;;;;9.50;2.45;;;;;;;14.21;61.19;101838.78;5053551;28;20040;-66
2022/09/19 06:43:06;;;;;;;7.47;2.33;;;;;;;14.25;61.55;101837.59;5053588;28;20044;-66
2022/09/19 06:46:05;;;;;;;9.55;2.22;;;;;;;14.29;61.62;101838.25;5071814;28;20055;-66
2022/09/19 06:48:41;;;;;;;12.25;2.72;;;;;;;14.35;61.58;101839.63;5053545;28;20037;-66
2022/09/19 06:51:29;;;;;;;8.48;2.50;;;;;;;14.43;61.30;101846.25;5053675;28;20058;-66
2022/09/19 06:53:57;;;;;;;8.38;2.47;;;;;;;14.52;61.60;101856.41;5053720;28;20109;-66
2022/09/19 06:56:24;;;;;;;12.23;2.85;;;;;;;14.63;61.87;101853.81;5052945;28;20051;-66
2022/09/19 06:58:51;;;;;;;9.93;3.08;;;;;;;14.75;61.64;101851.19;5053334;28;20418;-66
2022/09/19 07:01:18;;;;;;;3.97;1.95;;;;;;;14.87;62.02;101855.72;5058583;28;20468;-65
2022/09/19 07:03:48;;;;;;;7.00;2.50;;;;;;;15.02;62.16;101859.16;5045805;28;20425;-66
2022/09/19 07:06:20;;;;;;;9.65;2.85;;;;;;;15.16;62.09;101859.84;5052712;28;20056;-65
2022/09/19 07:09:12;;;;;;;11.45;2.55;;;;;;;15.38;61.79;101856.41;5052760;28;20067;-66
2022/09/19 07:11:38;;;;;;;6.07;2.75;;;;;;;15.53;62.23;101860.66;5059693;28;20052;-66
2022/09/19 07:14:10;;;;;;;6.55;2.17;;;;;;;15.70;61.92;101867.56;5053417;28;20044;-66
2022/09/19 07:16:37;;;;;;;8.73;2.60;;;;;;;15.86;61.70;101878.94;5053904;28;20040;-66
2022/09/19 07:19:05;;;;;;;8.85;2.45;;;;;;;16.01;61.76;101876.03;5070792;28;20118;-66
2022/09/19 07:21:52;;;;;;;9.40;1.88;;;;;;;16.16;61.49;101878.41;5070804;28;20406;-67
2022/09/19 07:24:42;;;;;;;7.07;2.00;;;;;;;16.33;61.43;101881.66;5071057;28;20055;-64
2022/09/19 07:27:22;;;;;;;10.43;2.63;;;;;;;16.48;61.09;101888.59;5070642;28;20052;-64
2022/09/19 07:29:49;;;;;;;10.70;2.33;;;;;;;16.63;60.98;101886.50;5053752;28;20045;-64
2022/09/19 07:32:18;;;;;;;10.15;2.90;;;;;;;16.79;61.01;101889.75;5070532;28;20047;-65
2022/09/19 07:34:46;;;;;;;11.07;2.72;;;;;;;16.94;61.00;101891.22;5052959;28;20518;-65
2022/09/19 07:37:13;;;;;;;8.20;2.50;;;;;;;17.09;60.84;101890.00;5071278;28;20033;-67
2022/09/19 07:39:43;;;;;;;7.97;2.50;;;;;;;17.19;60.22;101889.25;5056884;28;20418;-67
2022/09/19 07:42:58;;;;;;;6.97;2.00;;;;;;;17.39;60.27;101883.00;5062076;28;20054;-66
2022/09/19 07:45:48;;;;;;;8.10;2.08;;;;;;;17.57;60.02;101902.34;5057080;28;20521;-66
2022/09/19 07:48:30;;;;;;;10.50;2.30;;;;;;;17.72;59.83;101890.22;5056428;28;20399;-66
2022/09/19 07:51:15;;;;;;;9.90;2.10;;;;;;;17.89;60.04;101902.41;5074796;28;20051;-66
2022/09/19 07:53:43;;;;;;;9.68;2.22;;;;;;;18.00;59.58;101900.50;5056726;28;20102;-66
2022/09/19 07:56:10;;;;;;;8.93;2.15;;;;;;;18.07;59.58;101896.25;5055917;28;20044;-65
2022/09/19 07:58:37;;;;;;;12.20;2.45;;;;;;;18.17;59.22;101898.16;5075291;28;20036;-66
2022/09/19 08:01:04;;;;;;;11.60;2.58;;;;;;;18.23;59.07;101903.06;5056306;28;20044;-66
2022/09/19 08:03:58;;;;;;;11.07;1.80;;;;;;;18.31;58.94;101906.84;5071298;28;20051;-66
2022/09/19 08:06:36;;;;;;;5.50;1.65;;;;;;;18.40;58.76;101903.34;5056074;28;20044;-67
2022/09/19 08:09:05;;;;;;;5.60;1.38;;;;;;;18.49;58.81;101915.25;5056140;28;20041;-66
2022/09/19 08:11:50;;;;;;;7.38;2.08;;;;;;;18.58;58.46;101916.31;5075203;28;20151;-67
2022/09/19 08:14:18;;;;;;;5.05;1.42;;;;;;;18.65;58.43;101912.13;5076273;28;20047;-67
2022/09/19 08:16:45;;;;;;;6.60;1.80;;;;;;;18.75;58.50;101918.47;5075831;28;20514;-66
2022/09/19 08:19:14;;;;;;;7.75;1.98;;;;;;;18.88;57.96;101918.25;5072751;28;20074;-66
2022/09/19 08:21:41;;;;;;;13.65;1.88;;;;;;;19.00;57.97;101925.31;5072646;28;20235;-66
2022/09/19 08:24:13;;;;;;;6.60;1.50;;;;;;;19.08;57.81;101927.34;5072956;28;20041;-66
2022/09/19 08:26:42;;;;;;;7.18;1.75;;;;;;;19.07;57.14;101922.91;5072619;28;20037;-66
2022/09/19 08:29:09;;;;;;;10.35;1.70;;;;;;;19.04;57.32;101924.91;5072523;28;20045;-66
2022/09/19 08:31:47;;;;;;;8.15;1.65;;;;;;;19.00;57.16;101928.91;5072493;28;20407;-67
2022/09/19 08:34:14;;;;;;;7.22;1.92;;;;;;;18.98;56.78;101930.03;5072417;28;20033;-66
2022/09/19 08:36:42;;;;;;;5.50;1.60;;;;;;;18.96;56.45;101940.19;5072316;28;20052;-66
2022/09/19 08:39:08;;;;;;;7.70;1.50;;;;;;;18.95;56.54;101935.75;5071931;28;20041;-66
2022/09/19 08:41:52;;;;;;;11.65;1.90;;;;;;;18.99;56.47;101931.75;5072023;28;20139;-67
2022/09/19 08:45:11;;;;;;;7.00;1.45;;;;;;;19.04;56.75;101938.50;5073802;28;20068;-66
2022/09/19 08:47:40;;;;;;;5.22;1.80;;;;;;;19.12;56.87;101943.28;5056358;28;20452;-66
2022/09/19 08:50:18;;;;;;;7.65;1.70;;;;;;;19.15;56.34;101940.28;5055027;28;20528;-66
2022/09/19 08:52:49;;;;;;;5.93;1.58;;;;;;;19.20;56.31;101945.31;5072190;28;20040;-66
2022/09/19 08:55:24;;;;;;;7.50;1.60;;;;;;;19.24;56.55;101954.91;5072168;28;20045;-66
2022/09/19 08:58:00;;;;;;;9.60;1.70;;;;;;;19.25;56.63;101949.34;5073256;28;20049;-68
2022/09/19 09:00:47;;;;;;;10.20;1.65;;;;;;;19.23;56.19;101959.50;5072120;28;20051;-67
2022/09/19 09:03:41;;;;;;;5.72;1.48;;;;;;;19.12;55.97;101953.31;5071947;28;20068;-66
2022/09/19 09:06:23;;;;;;;5.07;1.50;;;;;;;19.08;56.45;101949.13;5063058;28;20518;-67
2022/09/19 09:08:57;;;;;;;6.75;1.33;;;;;;;19.04;56.46;101948.53;5071984;28;20132;-67
2022/09/19 09:11:58;;;;;;;7.18;1.52;;;;;;;19.00;56.48;101941.66;5072155;28;20044;-67
2022/09/19 09:14:46;;;;;;;18.95;9.13;;;;;;;19.00;56.67;101950.69;5071847;28;20051;-68
2022/09/19 09:17:48;;;;;;;9.32;2.22;;;;;;;19.02;56.79;101948.69;5071503;28;20119;-63
2022/09/19 09:20:46;;;;;;;7.13;1.58;;;;;;;19.02;56.57;101947.81;5059863;28;20061;-64
2022/09/19 09:23:47;;;;;;;9.27;1.70;;;;;;;19.09;56.46;101946.28;5051654;28;20041;-64
2022/09/19 09:26:40;;;;;;;10.73;1.98;;;;;;;19.23;56.82;101940.44;5031252;28;20079;-64
2022/09/19 09:29:25;;;;;;;7.53;2.05;;;;;;;19.33;56.84;101935.91;5062037;28;20040;-65
2022/09/19 09:32:16;;;;;;;7.25;1.73;;;;;;;19.51;56.61;101941.53;5071157;28;20055;-64
2022/09/19 09:34:58;;;;;;;8.68;1.88;;;;;;;19.64;56.71;101936.72;5071530;28;20052;-65
2022/09/19 09:37:31;;;;;;;8.57;1.60;;;;;;;19.78;56.11;101940.03;5071016;28;20037;-63
2022/09/19 09:43:20;;;;;;;7.32;2.13;;;;;;;20.17;55.94;101927.28;5051129;28;20120;-66
2022/09/19 09:45:51;;;;;;;6.50;1.58;;;;;;;20.35;55.63;101932.84;5051053;28;20124;-66
2022/09/19 09:48:36;;;;;;;7.45;2.03;;;;;;;20.50;55.45;101931.44;5051226;28;20079;-66
2022/09/19 09:51:19;;;;;;;5.78;1.70;;;;;;;20.63;55.30;101931.97;5051985;28;20068;-65
2022/09/19 09:57:42;;;;;;;9.07;1.80;;;;;;;20.99;54.73;101926.69;5067535;28;20045;-66
2022/09/19 10:06:30;;;;;;;7.38;1.55;;;;;;;21.37;53.21;101947.53;5049681;28;20041;-67
2022/09/19 10:09:14;;;;;;;5.88;1.70;;;;;;;21.42;52.73;101940.59;5066854;28;20127;-67
2022/09/19 10:11:58;;;;;;;7.65;1.73;;;;;;;21.52;52.54;101935.91;5066465;28;20045;-67
2022/09/19 10:14:46;;;;;;;8.73;1.60;;;;;;;21.62;52.49;101933.16;5051752;28;20468;-67
2022/09/19 10:17:33;;;;;;;4.72;1.65;;;;;;;21.71;52.28;101932.22;5050128;28;20527;-67
2022/09/19 10:20:15;;;;;;;8.02;1.63;;;;;;;21.81;51.85;101932.16;5051622;28;20037;-67
2022/09/19 10:22:42;;;;;;;7.90;1.73;;;;;;;21.87;51.38;101928.78;5051489;28;20072;-67
2022/09/19 10:25:12;;;;;;;5.80;1.50;;;;;;;21.92;50.97;101923.69;5050465;28;20048;-67
2022/09/19 10:27:45;;;;;;;5.65;1.30;;;;;;;21.96;50.84;101935.19;5062068;28;20064;-67
2022/09/19 10:30:53;;;;;;;3.03;1.00;;;;;;;21.89;50.54;101944.03;5058569;28;20076;-67
2022/09/19 10:33:44;;;;;;;3.90;0.82;;;;;;;21.71;50.08;101966.91;5070128;28;20048;-68
2022/09/19 10:36:25;;;;;;;10.93;3.10;;;;;;;21.48;49.71;101996.50;5068654;28;20102;-65
2022/09/19 10:38:54;;;;;;;6.93;1.23;;;;;;;21.14;49.62;101982.53;5070100;28;20190;-65
2022/09/19 10:41:25;;;;;;;6.40;1.48;;;;;;;20.72;49.46;101991.13;5070052;28;20048;-64
2022/09/19 10:43:59;;;;;;;3.05;1.20;;;;;;;20.37;50.12;101979.97;5070031;28;20498;-64
2022/09/19 10:46:36;;;;;;;3.50;1.20;;;;;;;20.07;50.39;101984.56;5068537;28;20032;-65
2022/09/19 10:49:25;;;;;;;5.63;1.17;;;;;;;19.78;50.88;101972.75;5062330;28;20427;-64
2022/09/19 10:51:59;;;;;;;3.70;0.88;;;;;;;19.56;51.06;101972.00;5049760;28;20400;-64
2022/09/19 10:54:36;;;;;;;4.30;0.90;;;;;;;19.34;51.55;101975.78;5049862;28;20044;-64
2022/09/19 10:57:25;;;;;;;5.30;1.20;;;;;;;19.16;52.24;101971.94;5049921;28;20041;-64
2022/09/19 10:59:54;;;;;;;3.80;1.10;;;;;;;19.08;52.55;101968.19;5050588;28;20036;-64
2022/09/19 11:02:28;;;;;;;3.72;0.88;;;;;;;19.08;52.91;101974.50;5034150;28;20056;-64
2022/09/19 11:05:03;;;;;;;2.67;0.90;;;;;;;19.15;53.59;101986.56;5049820;28;20041;-65
2022/09/19 11:07:56;;;;;;;2.33;0.80;;;;;;;19.27;53.89;101990.06;5050050;28;20072;-65
2022/09/19 11:10:38;;;;;;;7.13;1.27;;;;;;;19.31;54.39;101976.00;5035299;28;20045;-65
2022/09/19 11:13:15;;;;;;;2.65;0.80;;;;;;;19.27;54.02;101982.75;5049389;28;20292;-65
2022/09/19 11:15:51;;;;;;;5.63;1.13;;;;;;;19.17;53.81;101979.13;5051249;28;20045;-65
2022/09/19 11:18:27;;;;;;;3.05;0.70;;;;;;;19.05;54.21;101972.03;5058851;28;20136;-65
2022/09/19 11:21:07;;;;;;;5.10;0.98;;;;;;;18.98;54.17;101973.59;5049396;28;20045;-65
2022/09/19 11:23:56;;;;;;;5.93;1.10;;;;;;;18.90;53.99;101973.41;5049843;28;20411;-66
2022/09/19 11:26:57;;;;;;;3.38;0.80;;;;;;;18.81;54.31;101976.94;5049633;28;20128;-66
2022/09/19 11:30:11;;;;;;;1.85;0.73;;;;;;;18.80;54.25;101975.22;5050298;28;20057;-65
2022/09/19 11:32:59;;;;;;;6.75;1.58;;;;;;;18.81;54.57;101979.66;5049457;28;20499;-65
2022/09/19 11:36:01;;;;;;;4.95;1.42;;;;;;;18.83;55.02;101980.38;5050604;28;20099;-65
2022/09/19 11:38:36;;;;;;;4.70;1.38;;;;;;;18.88;55.24;101976.25;5050787;28;20064;-66
2022/09/19 11:41:45;;;;;;;4.03;1.23;;;;;;;18.95;55.28;101974.72;5049239;28;20064;-66
2022/09/19 11:44:28;;;;;;;5.88;1.48;;;;;;;19.03;55.63;101972.19;5049463;28;20056;-65
2022/09/19 11:47:02;;;;;;;8.75;2.13;;;;;;;19.14;55.36;101965.78;5058530;28;20052;-65
2022/09/19 11:49:51;;;;;;;7.28;1.50;;;;;;;19.30;55.72;101965.25;5069157;28;20047;-66
2022/09/19 11:52:45;;;;;;;7.10;2.38;;;;;;;19.40;55.93;101966.19;5069654;28;20486;-66
2022/09/19 11:55:50;;;;;;;5.72;1.45;;;;;;;19.52;55.98;101964.22;5069376;28;20048;-66
2022/09/19 11:58:29;;;;;;;5.90;1.27;;;;;;;19.63;55.74;101962.25;5051109;28;20057;-66
2022/09/19 12:01:05;;;;;;;6.70;1.48;;;;;;;19.74;55.57;101964.00;5060925;28;20059;-65
2022/09/19 12:03:59;;;;;;;6.93;1.73;;;;;;;19.87;55.75;101967.31;5066234;28;20037;-67
2022/09/19 12:07:17;;;;;;;7.15;1.45;;;;;;;20.08;55.62;101952.69;5062908;28;20041;-66
2022/09/19 12:09:58;;;;;;;6.95;1.42;;;;;;;20.19;55.48;101966.19;5028633;28;20489;-67
2022/09/19 12:12:30;;;;;;;5.63;1.48;;;;;;;20.20;54.95;101965.19;5050044;28;20049;-66
2022/09/19 12:15:28;;;;;;;6.18;1.15;;;;;;;20.16;54.48;101972.78;5050403;28;20041;-65
2022/09/19 12:18:09;;;;;;;3.20;1.00;;;;;;;20.07;54.19;101968.19;5049000;28;20041;-66
2022/09/19 12:20:44;;;;;;;3.35;1.23;;;;;;;19.99;54.17;101965.28;5048950;28;20037;-66
2022/09/19 12:26:24;;;;;;;4.00;1.08;;;;;;;19.75;54.00;101959.41;5052779;28;20476;-67
2022/09/19 12:29:03;;;;;;;3.28;1.15;;;;;;;19.63;54.02;101961.38;5052833;28;20059;-66
2022/09/19 12:31:36;;;;;;;4.13;1.20;;;;;;;19.54;54.24;101964.97;5053680;28;20107;-66